Aérodrome :
LOGIN :

S'inscrire | Disclaimer

   EN    FR    IT 

 










Légende :    VFR   VFR Marginal   IFR   IFR Intensif   IFR Très Intensif
Visi : 
Plafond : 
>= 8 km
>= 3000ft
5 à 8 km
1000 à 3000 ft
1500m à 5 km
500 à 1000 ft
800 à 1500m
200 à 500 ft
< 800m
< 200 ft
Symboles :   Orages  Brouillard  Fortes neiges  Fortes précipitations  Vent > 20 kt
SIGMETs :   Divers  Orages  Givrage  Turbulence  Onde Orograph.  Cendres Volcan.






- Altitude de l'aérodrome : 12 ft
- Code IATA : CQF


LFAC - Calais

DERNIER METAR :
  • 241200Z AUTO 23021G35KT 9999 OVC011 11/09 Q1011

METARs EXPIRÉS :
  • 241130Z AUTO 23023G34KT 5000 BR OVC011 11/09 Q1012
  • 241100Z AUTO 23022G42KT 7000 OVC010 11/09 Q1012
  • 241030Z AUTO 23023G35KT 8000 2600 OVC010/// 11/09 Q1012
  • 241000Z AUTO 23021G35KT 6000 OVC009 11/09 Q1012
  • 240930Z AUTO 23020G35KT 4700 -RADZ BR BKN007 OVC011 11/10 Q1012

TAF N/A
ATIS : +33 3 21 00 11 14



MET'MAP, la Météo Aéronautique d'un coup d'oeil ! - Copyright ORBIFLY Décembre 2007 - Disclaimer

ORBIFLY MET'MAP TEAM :

Programmation & Développement : Alexandra Zaïnal
Sur une idée originale de : Baudouin d'Aumeries
Assistance à la programmation : Marc-Olivier Méhu
Soutien technique & logistique : Manuel Goepfert

Contact : metmap@orbifly.com




SOURCES & CREDITS :

   NOAA